Time;durP1;ratioP1;P1;durP2;ratioP2;P2;SDS_P1;SDS_P2;PMS_P1;PMS_P2;Temp;Humidity;BMP_temperature;BMP_pressure;BME280_temperature;BME280_humidity;BME280_pressure;Samples;Min_cycle;Max_cycle;Signal;HPM_P1;HPM_P2
2022/06/02 00:00:24;;;;;;;;;1.33;1.33;;;;;19.93;53.84;101517.47;4985716;28;46666;-77
2022/06/02 00:03:19;;;;;;;;;3.33;1.00;;;;;19.90;54.28;101523.75;4979497;28;45460;-76
2022/06/02 00:06:10;;;;;;;;;1.33;1.33;;;;;19.88;54.33;101523.78;4981205;28;45401;-76
2022/06/02 00:08:51;;;;;;;;;1.67;1.67;;;;;19.85;54.31;101520.25;4975479;28;45428;-76
2022/06/02 00:11:31;;;;;;;;;1.33;1.33;;;;;19.83;55.00;101528.31;4980155;28;46800;-76
2022/06/02 00:14:21;;;;;;;;;3.67;1.33;;;;;19.79;55.40;101529.28;4978142;28;45516;-76
2022/06/02 00:17:12;;;;;;;;;2.00;2.00;;;;;19.77;55.46;101523.06;4979414;28;45384;-76
2022/06/02 00:19:43;;;;;;;;;2.00;2.00;;;;;19.76;55.56;101523.06;4966807;28;45608;-76
2022/06/02 00:22:23;;;;;;;;;2.33;2.33;;;;;19.74;55.71;101525.78;4982453;28;47350;-76
2022/06/02 00:24:56;;;;;;;;;2.00;1.00;;;;;19.73;55.88;101528.50;4972986;28;45274;-77
2022/06/02 00:27:36;;;;;;;;;4.67;2.00;;;;;19.69;56.18;101524.97;4982333;28;45381;-78
2022/06/02 00:30:19;;;;;;;;;3.00;1.67;;;;;19.68;56.13;101536.59;4979238;28;45528;-76
2022/06/02 00:33:29;;;;;;;;;3.33;2.67;;;;;19.63;56.34;101550.06;4983819;28;47972;-76
2022/06/02 00:36:00;;;;;;;;;2.67;2.67;;;;;19.62;56.93;101547.41;4964690;28;45479;-75
2022/06/02 00:38:34;;;;;;;;;2.00;2.00;;;;;19.58;56.96;101543.84;4978988;28;45435;-76
2022/06/02 00:41:25;;;;;;;;;3.00;3.00;;;;;19.53;57.12;101544.81;4979450;28;45537;-77
2022/06/02 00:44:21;;;;;;;;;2.67;2.67;;;;;19.48;57.81;101549.38;4988673;28;46690;-76
2022/06/02 00:46:59;;;;;;;;;4.00;3.00;;;;;19.44;57.47;101545.88;4990985;28;45303;-76
2022/06/02 00:49:24;;;;;;;;;2.00;2.00;;;;;19.42;58.38;101557.50;4979141;28;45351;-76
2022/06/02 00:51:59;;;;;;;;;3.00;2.33;;;;;19.40;57.83;101548.59;4979951;28;45631;-76
2022/06/02 00:57:41;;;;;;;;;3.00;3.00;;;;;19.29;59.00;101538.94;4964542;28;45184;-76
2022/06/02 01:00:11;;;;;;;;;4.67;3.00;;;;;19.29;58.70;101544.28;4980938;28;45438;-76
2022/06/02 01:03:14;;;;;;;;;2.67;2.33;;;;;19.27;59.51;101543.41;4988595;28;45473;-76
2022/06/02 01:06:04;;;;;;;;;3.00;3.00;;;;;19.23;59.33;101543.44;4990266;28;47347;-77
2022/06/02 01:09:03;;;;;;;;;4.33;3.00;;;;;19.19;59.57;101545.31;4968651;28;45408;-75
2022/06/02 01:11:31;;;;;;;;;4.33;3.33;;;;;19.15;60.04;101538.22;4975509;28;45501;-76
2022/06/02 01:14:23;;;;;;;;;3.00;3.00;;;;;19.11;60.46;101542.72;4980106;28;45466;-77
2022/06/02 01:17:39;;;;;;;;;4.33;4.00;;;;;19.07;60.77;101542.81;4978528;28;46689;-76
2022/06/02 01:20:30;;;;;;;;;4.67;3.00;;;;;19.02;60.90;101539.28;4961057;28;45622;-76
2022/06/02 01:23:07;;;;;;;;;4.00;4.00;;;;;19.00;61.82;101535.72;4972594;28;45546;-78
2022/06/02 01:25:59;;;;;;;;;3.00;3.00;;;;;18.94;61.62;101536.69;4985536;28;45300;-75
2022/06/02 01:28:33;;;;;;;;;5.00;5.00;;;;;18.92;62.04;101532.28;4985961;28;46508;-76
2022/06/02 01:30:59;;;;;;;;;4.00;4.00;;;;;18.88;62.50;101538.56;4961403;28;45402;-76
2022/06/02 01:33:31;;;;;;;;;4.00;4.00;;;;;18.83;62.51;101541.28;4978483;28;45346;-75
2022/06/02 01:36:20;;;;;;;;;3.67;3.67;;;;;18.81;62.29;101533.28;4983633;28;45223;-76
2022/06/02 01:39:02;;;;;;;;;5.33;5.00;;;;;18.80;62.93;101542.22;4992274;28;46605;-76
2022/06/02 01:41:47;;;;;;;;;5.00;4.00;;;;;18.78;63.35;101525.28;4975033;28;45437;-76
2022/06/02 01:44:18;;;;;;;;;3.33;3.33;;;;;18.76;63.21;101529.78;4963710;28;45544;-76
2022/06/02 01:46:53;;;;;;;;;5.00;4.67;;;;;18.73;63.37;101534.28;4965738;28;46782;-77
2022/06/02 01:49:33;;;;;;;;;4.33;4.33;;;;;18.70;63.62;101548.59;4975984;28;46558;-76
2022/06/02 01:52:05;;;;;;;;;5.00;4.00;;;;;18.69;63.73;101556.59;4960522;28;45433;-77
2022/06/02 01:54:50;;;;;;;;;4.00;3.33;;;;;18.66;64.34;101556.63;4977910;28;45279;-77
2022/06/02 01:57:37;;;;;;;;;5.00;4.00;;;;;18.61;64.09;101556.66;4980038;28;45401;-76
2022/06/02 02:00:14;;;;;;;;;4.00;4.00;;;;;18.57;64.59;101558.47;4972940;28;46477;-78
2022/06/02 02:02:39;;;;;;;;;5.00;5.00;;;;;18.54;64.83;101554.97;4977696;28;45793;-75
2022/06/02 02:05:17;;;;;;;;;4.33;3.67;;;;;18.52;65.21;101559.44;4971789;28;45560;-76
2022/06/02 02:08:19;;;;;;;;;4.00;4.00;;;;;18.47;65.22;101558.59;4981567;28;45553;-76
2022/06/02 02:10:53;;;;;;;;;3.00;3.00;;;;;18.41;65.49;101551.50;4975909;28;47047;-76
2022/06/02 02:13:35;;;;;;;;;5.00;5.00;;;;;18.37;65.51;101546.19;4977690;28;45456;-77
2022/06/02 02:16:28;;;;;;;;;5.00;5.00;;;;;18.31;66.13;101539.13;4976706;28;45488;-76
2022/06/02 02:19:12;;;;;;;;;5.33;4.00;;;;;18.28;66.28;101550.75;4975555;28;45597;-77
2022/06/02 02:21:45;;;;;;;;;3.33;3.33;;;;;18.23;67.02;101544.56;4978689;28;46522;-76
2022/06/02 02:24:25;;;;;;;;;4.00;4.00;;;;;18.21;66.72;101545.47;4987153;28;45629;-76
2022/06/02 02:27:13;;;;;;;;;6.33;4.00;;;;;18.16;67.25;101545.50;4976018;28;45542;-76
2022/06/02 02:29:58;;;;;;;;;4.00;4.00;;;;;18.14;67.40;101549.97;4960835;28;45227;-77
2022/06/02 02:32:40;;;;;;;;;3.67;3.67;;;;;18.10;67.85;101550.91;4985782;28;47231;-76
2022/06/02 02:35:06;;;;;;;;;4.67;3.00;;;;;18.08;67.78;101552.72;4953705;28;46274;-76
2022/06/02 02:37:38;;;;;;;;;5.67;4.33;;;;;18.06;68.31;101543.84;4984209;28;45226;-77
2022/06/02 02:40:07;;;;;;;;;4.00;4.00;;;;;18.03;67.81;101543.84;4966154;28;45444;-76
2022/06/02 02:42:42;;;;;;;;;5.00;5.00;;;;;18.00;68.69;101544.78;4980181;28;46612;-77
2022/06/02 02:45:33;;;;;;;;;5.00;4.00;;;;;17.98;68.73;101546.56;4977403;28;45325;-78
2022/06/02 02:48:14;;;;;;;;;6.67;5.00;;;;;17.95;68.43;101541.25;4985319;28;45431;-76
2022/06/02 02:51:01;;;;;;;;;6.00;6.00;;;;;17.94;68.78;101543.91;4977144;28;45384;-76
2022/06/02 02:53:36;;;;;;;;;6.25;6.25;;;;;17.90;69.30;101547.53;4975458;28;47507;-77
2022/06/02 02:56:14;;;;;;;;;6.33;5.00;;;;;17.84;69.52;101553.78;4981574;28;45531;-76
2022/06/02 02:58:43;;;;;;;;;5.00;5.00;;;;;17.80;70.13;101546.72;4965392;28;45448;-76
2022/06/02 03:01:50;;;;;;;;;4.33;4.33;;;;;17.76;69.92;101545.84;4975912;28;45423;-75
2022/06/02 03:04:18;;;;;;;;;6.00;6.00;;;;;17.74;70.24;101547.66;4964046;28;47133;-77
2022/06/02 03:06:43;;;;;;;;;5.00;5.00;;;;;17.71;70.48;101542.28;4980370;28;45420;-76
2022/06/02 03:09:29;;;;;;;;;6.67;5.00;;;;;17.68;70.24;101547.63;4981158;28;45577;-76
2022/06/02 03:12:22;;;;;;;;;4.33;4.33;;;;;17.68;70.50;101544.06;4975648;28;45442;-76
2022/06/02 03:15:09;;;;;;;;;4.00;4.00;;;;;17.63;70.46;101541.47;4978929;28;47368;-76
2022/06/02 03:17:41;;;;;;;;;5.00;5.00;;;;;17.59;71.05;101542.38;4974550;28;46656;-76
2022/06/02 03:20:21;;;;;;;;;6.00;5.00;;;;;17.55;71.09;101533.47;4981938;28;45516;-76
2022/06/02 03:23:14;;;;;;;;;6.00;5.00;;;;;17.51;71.06;101533.50;4990973;28;45536;-76
2022/06/02 03:26:08;;;;;;;;;5.00;5.00;;;;;17.48;71.64;101536.22;4977225;28;47591;-76
2022/06/02 03:29:07;;;;;;;;;7.00;5.33;;;;;17.47;71.82;101546.00;4978642;28;45372;-77
2022/06/02 03:31:46;;;;;;;;;6.00;6.00;;;;;17.46;71.97;101549.53;4974967;28;45306;-76
2022/06/02 03:34:12;;;;;;;;;5.33;4.33;;;;;17.42;72.26;101547.81;4960541;28;45300;-76
2022/06/02 03:36:56;;;;;;;;;5.00;5.00;;;;;17.40;72.51;101552.25;4979000;28;47792;-77
2022/06/02 03:39:53;;;;;;;;;6.33;4.33;;;;;17.38;72.24;101550.50;4981830;28;45578;-77
2022/06/02 03:42:44;;;;;;;;;5.00;5.00;;;;;17.35;72.66;101558.53;4978749;28;45393;-76
2022/06/02 03:45:27;;;;;;;;;5.00;5.00;;;;;17.33;72.72;101565.66;4980693;28;45603;-76
2022/06/02 03:47:53;;;;;;;;;5.33;5.00;;;;;17.29;72.79;101571.00;4983134;28;46574;-76
2022/06/02 03:50:46;;;;;;;;;7.00;5.50;;;;;17.26;73.09;101570.16;4981451;28;45203;-76
2022/06/02 03:53:30;;;;;;;;;6.67;6.67;;;;;17.24;73.41;101572.81;4976604;28;45368;-76
2022/06/02 03:56:07;;;;;;;;;6.00;6.00;;;;;17.22;73.39;101558.59;4974872;28;45711;-76
2022/06/02 03:58:49;;;;;;;;;5.33;5.33;;;;;17.20;73.58;101555.03;4972422;28;47493;-76
2022/06/02 04:01:21;;;;;;;;;6.00;6.00;;;;;17.18;73.97;101554.16;4961516;28;45523;-76
2022/06/02 04:03:55;;;;;;;;;7.00;6.00;;;;;17.17;74.10;101547.03;4978999;28;45434;-77
2022/06/02 04:06:40;;;;;;;;;7.00;6.00;;;;;17.16;73.89;101547.94;4990378;28;45440;-76
2022/06/02 04:09:14;;;;;;;;;5.33;5.33;;;;;17.15;73.81;101550.59;4972406;28;46459;-76
2022/06/02 04:15:18;;;;;;;;;5.00;5.00;;;;;17.15;74.09;101567.53;4978519;28;45429;-76
2022/06/02 04:18:17;;;;;;;;;4.75;4.75;;;;;17.15;74.57;101578.22;4976355;28;45244;-76
2022/06/02 04:21:07;;;;;;;;;8.25;6.50;;;;;17.14;74.44;101573.72;4961353;28;47820;-76
2022/06/02 04:23:48;;;;;;;;;5.00;5.00;;;;;17.16;74.56;101565.75;4983671;28;45519;-77
2022/06/02 04:26:33;;;;;;;;;7.00;5.33;;;;;17.16;74.50;101571.97;4976403;28;45457;-77
2022/06/02 04:29:23;;;;;;;;;5.00;5.00;;;;;17.17;74.96;101571.06;4984389;28;45603;-76
2022/06/02 04:31:54;;;;;;;;;7.00;5.00;;;;;17.16;75.08;101574.63;4978837;28;47676;-76
2022/06/02 04:34:26;;;;;;;;;5.25;5.25;;;;;17.17;74.83;101578.19;4988632;28;45482;-75
2022/06/02 04:37:22;;;;;;;;;6.33;5.00;;;;;17.17;74.74;101576.41;4993269;28;45571;-77
2022/06/02 04:40:26;;;;;;;;;9.33;6.33;;;;;17.20;74.68;101583.50;4967800;28;45577;-76
2022/06/02 04:43:32;;;;;;;;;7.00;6.00;;;;;17.21;74.86;101586.19;4980637;28;47670;-76
2022/06/02 04:46:14;;;;;;;;;5.00;5.00;;;;;17.25;74.79;101587.03;4987416;28;45547;-77
2022/06/02 04:48:54;;;;;;;;;6.00;6.00;;;;;17.26;75.03;101581.72;4977736;28;45405;-77
2022/06/02 04:51:58;;;;;;;;;6.67;5.67;;;;;17.28;75.50;101585.25;4963317;28;45709;-77
2022/06/02 04:54:57;;;;;;;;;8.67;7.00;;;;;17.33;75.09;101600.38;4982448;28;46533;-76
2022/06/02 04:57:30;;;;;;;;;7.67;6.00;;;;;17.36;74.93;101581.66;4960613;28;45540;-76
2022/06/02 05:00:18;;;;;;;;;6.67;6.67;;;;;17.37;75.14;101576.31;4960975;28;45552;-75
2022/06/02 05:03:03;;;;;;;;;8.75;7.00;;;;;17.41;75.50;101585.19;4963542;28;45658;-77
2022/06/02 05:05:39;;;;;;;;;6.67;6.00;;;;;17.44;74.86;101586.06;4980620;28;47243;-76
2022/06/02 05:08:22;;;;;;;;;8.00;7.00;;;;;17.47;75.15;101582.47;4980081;28;45334;-75
2022/06/02 05:11:22;;;;;;;;;8.00;7.00;;;;;17.49;75.13;101573.56;4982254;28;45263;-76
2022/06/02 05:14:02;;;;;;;;;6.50;6.50;;;;;17.53;75.22;101579.78;4977498;28;45471;-76
2022/06/02 05:16:58;;;;;;;;;9.00;8.00;;;;;17.55;75.38;101586.00;4983227;28;47393;-78
2022/06/02 05:19:52;;;;;;;;;7.50;5.50;;;;;17.57;75.35;101581.53;4973127;28;45787;-76
2022/06/02 05:22:32;;;;;;;;;8.33;7.33;;;;;17.61;75.39;101585.06;4980919;28;45283;-77
2022/06/02 05:25:19;;;;;;;;;12.00;7.00;;;;;17.62;75.16;101593.06;4985507;28;45444;-76
2022/06/02 05:28:04;;;;;;;;;9.00;9.00;;;;;17.64;75.52;101591.31;4975806;28;47208;-77
2022/06/02 05:31:14;;;;;;;;;7.33;6.33;;;;;17.68;75.33;101576.13;4978250;28;45480;-77
2022/06/02 05:33:45;;;;;;;;;8.50;7.75;;;;;17.73;75.20;101575.22;4980117;28;45477;-76
2022/06/02 05:36:48;;;;;;;;;9.00;9.00;;;;;17.79;75.54;101583.22;4978894;28;45767;-76
2022/06/02 05:39:26;;;;;;;;;8.33;7.00;;;;;17.85;75.21;101584.09;4962676;28;46556;-75
2022/06/02 05:41:55;;;;;;;;;8.00;8.00;;;;;17.88;75.29;101582.25;4988348;28;45520;-75
2022/06/02 05:44:43;;;;;;;;;9.00;6.67;;;;;17.91;75.02;101589.38;4977536;28;47138;-75
2022/06/02 05:47:23;;;;;;;;;9.75;8.00;;;;;17.92;75.37;101581.34;4957630;28;45589;-75
2022/06/02 05:50:11;;;;;;;;;7.00;7.00;;;;;17.99;75.23;101576.84;4957726;28;47006;-75
2022/06/02 05:53:10;;;;;;;;;6.25;6.25;;;;;18.02;75.27;101576.81;4991209;28;45460;-74
2022/06/02 05:55:41;;;;;;;;;10.00;9.00;;;;;17.98;76.05;101593.75;4977546;28;45461;-73
2022/06/02 05:58:44;;;;;;;;;8.00;7.00;;;;;17.85;76.98;101578.75;4973718;28;46513;-74
2022/06/02 06:01:50;;;;;;;;;9.00;8.67;;;;;17.64;78.65;101577.06;4973199;28;45576;-72
2022/06/02 06:04:48;;;;;;;;;9.00;9.00;;;;;17.47;78.77;101588.72;4976209;28;47173;-73
2022/06/02 06:07:18;;;;;;;;;10.00;7.75;;;;;17.31;79.65;101594.13;4958854;28;45294;-73
2022/06/02 06:09:55;;;;;;;;;10.25;8.75;;;;;17.19;79.98;101584.41;4975864;28;45620;-73
2022/06/02 06:12:33;;;;;;;;;8.00;8.00;;;;;17.07;82.09;101597.78;4973676;28;46730;-73
2022/06/02 06:15:29;;;;;;;;;8.00;7.00;;;;;16.97;82.09;101597.81;4977859;28;45470;-73
2022/06/02 06:18:16;;;;;;;;;12.00;9.00;;;;;16.90;82.18;101606.75;4974950;28;45501;-73
2022/06/02 06:20:53;;;;;;;;;9.00;7.25;;;;;16.84;83.02;101603.22;4986684;28;45544;-73
2022/06/02 06:23:49;;;;;;;;;13.75;9.50;;;;;16.76;85.57;101592.53;4979699;28;45761;-74
2022/06/02 06:26:23;;;;;;;;;9.00;9.00;;;;;16.74;83.80;101589.88;4972840;28;45268;-72
2022/06/02 06:29:11;;;;;;;;;8.50;8.50;;;;;16.73;83.48;101587.22;4975748;28;45519;-72
2022/06/02 06:31:47;;;;;;;;;11.25;10.50;;;;;16.77;82.86;101586.31;4976409;28;46709;-72
2022/06/02 06:34:21;;;;;;;;;9.75;6.50;;;;;16.83;83.22;101588.06;4973698;28;45721;-73
2022/06/02 06:36:49;;;;;;;;;10.00;8.25;;;;;16.87;85.36;101584.50;4975211;28;45526;-73
2022/06/02 06:39:20;;;;;;;;;12.25;10.00;;;;;16.92;83.34;101585.38;4982159;28;45490;-73
2022/06/02 06:42:10;;;;;;;;;10.00;8.25;;;;;16.98;83.66;101583.56;4977234;28;45641;-73
2022/06/02 06:44:54;;;;;;;;;9.75;9.75;;;;;17.05;85.06;101581.81;4976419;28;47531;-73
2022/06/02 06:47:58;;;;;;;;;10.25;9.25;;;;;17.09;85.62;101588.00;4959341;28;45708;-73
2022/06/02 06:50:40;;;;;;;;;10.25;9.25;;;;;17.15;83.95;101586.22;4975499;28;45599;-73
2022/06/02 06:53:20;;;;;;;;;8.67;8.67;;;;;17.23;84.21;101576.38;4959740;28;45707;-73
2022/06/02 06:55:51;;;;;;;;;9.25;9.25;;;;;17.26;86.34;101584.38;4979639;28;46653;-73
2022/06/02 06:58:23;;;;;;;;;10.00;8.75;;;;;17.31;85.58;101579.03;4978066;28;45501;-74
2022/06/02 07:00:56;;;;;;;;;8.50;8.25;;;;;17.37;85.78;101583.44;4974606;28;45582;-73
2022/06/02 07:03:39;;;;;;;;;10.00;9.00;;;;;17.42;85.34;101592.31;4977476;28;46670;-73
2022/06/02 07:06:29;;;;;;;;;14.00;10.00;;;;;17.49;85.75;101594.06;4961931;28;46368;-73
2022/06/02 07:09:17;;;;;;;;;16.50;12.50;;;;;17.58;85.03;101593.09;4964412;28;45434;-73
2022/06/02 07:14:50;;;;;;;;;11.33;10.00;;;;;17.68;84.37;101592.16;4983112;28;45754;-73
2022/06/02 07:17:57;;;;;;;;;13.00;10.50;;;;;17.74;84.49;101593.06;4973837;28;47036;-75
2022/06/02 07:20:30;;;;;;;;;13.00;10.00;;;;;17.82;85.46;101594.78;4969453;28;45683;-74
2022/06/02 07:23:05;;;;;;;;;9.50;9.50;;;;;17.89;86.33;101594.72;4979189;28;45488;-73
2022/06/02 07:25:42;;;;;;;;;15.50;11.00;;;;;17.97;84.18;101594.69;4978212;28;45601;-74
2022/06/02 07:28:38;;;;;;;;;11.00;10.75;;;;;18.04;84.25;101596.38;4982816;28;47403;-74
2022/06/02 07:31:15;;;;;;;;;10.00;10.00;;;;;18.14;83.91;101599.88;4974715;28;45427;-73
2022/06/02 07:34:03;;;;;;;;;9.33;8.00;;;;;18.22;83.68;101598.94;4976262;28;45508;-74
2022/06/02 07:37:21;;;;;;;;;9.00;9.00;;;;;18.36;83.51;101589.91;4977148;28;45488;-72
2022/06/02 07:40:08;;;;;;;;;11.33;10.00;;;;;18.45;83.76;101595.16;4976576;28;45560;-73
2022/06/02 07:42:48;;;;;;;;;12.33;9.67;;;;;18.55;82.63;101595.06;4979208;28;45532;-73
2022/06/02 07:45:43;;;;;;;;;9.33;9.33;;;;;18.66;82.61;101584.25;4978408;28;45524;-72
2022/06/02 07:48:22;;;;;;;;;11.00;11.00;;;;;18.74;82.24;101586.88;4961803;28;45762;-74
2022/06/02 07:51:29;;;;;;;;;10.00;10.00;;;;;18.83;82.18;101589.47;4969670;28;47453;-74
2022/06/02 07:54:04;;;;;;;;;9.33;7.33;;;;;18.91;81.78;101589.34;4976384;28;45815;-74
2022/06/02 07:57:04;;;;;;;;;6.33;6.33;;;;;18.98;81.32;101600.00;4978809;28;45405;-73
2022/06/02 07:59:49;;;;;;;;;7.00;7.00;;;;;19.03;79.87;101587.44;4977483;28;45444;-73
2022/06/02 08:02:50;;;;;;;;;8.33;8.00;;;;;19.06;78.75;101583.81;4990962;28;47161;-74
2022/06/02 08:05:31;;;;;;;;;9.33;7.00;;;;;19.09;79.03;101581.13;4970360;28;45357;-74
2022/06/02 08:08:00;;;;;;;;;7.67;6.33;;;;;19.17;78.84;101576.53;4961251;28;45326;-75
2022/06/02 08:10:40;;;;;;;;;6.00;5.67;;;;;19.33;78.46;101569.19;4980168;28;45788;-74
2022/06/02 08:13:18;;;;;;;;;5.33;5.33;;;;;19.60;78.50;101565.28;4985415;28;45909;-73
2022/06/02 08:16:25;;;;;;;;;7.33;6.00;;;;;19.94;77.61;101568.34;4978711;28;45540;-74
2022/06/02 08:18:53;;;;;;;;;5.33;5.33;;;;;20.22;75.92;101551.81;4958701;28;45606;-74
2022/06/02 08:21:39;;;;;;;;;7.00;7.00;;;;;20.47;73.74;101545.13;4979321;28;45546;-73
2022/06/02 08:24:33;;;;;;;;;7.00;5.00;;;;;20.73;73.94;101549.13;4958847;28;47576;-73
2022/06/02 08:27:26;;;;;;;;;5.00;5.00;;;;;20.92;72.05;101555.88;4977081;28;45621;-73
2022/06/02 08:30:11;;;;;;;;;6.33;5.67;;;;;21.11;71.81;101548.34;4963028;28;45519;-74
2022/06/02 08:33:15;;;;;;;;;5.00;5.00;;;;;21.27;70.96;101552.47;4978540;28;45537;-73
2022/06/02 08:35:50;;;;;;;;;5.33;4.00;;;;;21.39;69.28;101544.16;4991879;28;45893;-73
2022/06/02 08:38:46;;;;;;;;;6.67;5.33;;;;;21.49;66.13;101534.09;4977914;28;45760;-74
2022/06/02 08:41:56;;;;;;;;;4.67;4.33;;;;;21.56;67.73;101540.19;4978013;28;45706;-74
2022/06/02 08:44:49;;;;;;;;;6.67;5.00;;;;;21.64;65.83;101538.22;4976991;28;45669;-74
2022/06/02 08:47:26;;;;;;;;;5.33;5.33;;;;;21.63;64.62;101536.47;4974579;28;46916;-73
2022/06/02 08:50:12;;;;;;;;;8.00;6.00;;;;;21.62;65.92;101535.56;4979439;28;46354;-75
2022/06/02 08:53:14;;;;;;;;;9.67;4.00;;;;;21.58;66.74;101525.81;4991993;28;45512;-75
2022/06/02 08:55:59;;;;;;;;;5.00;5.00;;;;;21.55;66.77;101523.19;4974649;28;45822;-74
2022/06/02 08:58:50;;;;;;;;;7.33;5.00;;;;;21.55;66.39;101525.88;4976601;28;46535;-73
2022/06/02 09:01:28;;;;;;;;;4.67;3.00;;;;;21.59;66.80;101529.38;4983348;28;45485;-73
2022/06/02 09:06:40;;;;;;;;;6.67;4.00;;;;;21.74;66.87;101534.41;5007172;28;46276;-75
2022/06/02 09:09:27;;;;;;;;;6.67;4.33;;;;;21.78;66.35;101536.06;5016067;28;46442;-75
2022/06/02 09:12:22;;;;;;;;;6.00;4.67;;;;;21.77;66.18;101526.25;5013748;28;45290;-75
2022/06/02 09:15:06;;;;;;;;;4.00;4.00;;;;;21.77;65.44;101523.56;5015277;28;45404;-75
2022/06/02 09:17:47;;;;;;;;;4.00;4.00;;;;;21.79;65.17;101515.47;5016299;28;45585;-75
2022/06/02 09:20:40;;;;;;;;;5.33;5.33;;;;;21.83;64.94;101509.97;5010954;28;45820;-75
2022/06/02 09:23:30;;;;;;;;;4.00;4.00;;;;;21.91;65.50;101515.16;5013708;28;45270;-75
2022/06/02 09:26:11;;;;;;;;;6.33;5.00;;;;;21.95;64.66;101504.28;5014695;28;45480;-74
2022/06/02 09:29:12;;;;;;;;;4.33;4.33;;;;;22.05;61.88;101520.19;5009890;28;45384;-76
2022/06/02 09:32:04;;;;;;;;;4.00;4.00;;;;;22.18;63.56;101514.47;5007858;28;46563;-73
2022/06/02 09:34:34;;;;;;;;;3.00;3.00;;;;;22.29;61.24;101521.41;5010221;28;45542;-76
2022/06/02 09:37:18;;;;;;;;;3.00;3.00;;;;;22.40;61.55;101519.28;5010999;28;45523;-75
2022/06/02 09:39:58;;;;;;;;;2.00;2.00;;;;;22.55;62.23;101518.00;5014655;28;46255;-75
2022/06/02 09:42:42;;;;;;;;;3.00;3.00;;;;;;;;5010800;28;47623;-75
2022/06/02 09:45:37;;;;;;;;;3.00;3.00;;;;;22.80;61.31;101513.69;5007198;28;45385;-73
2022/06/02 09:48:18;;;;;;;;;2.00;2.00;;;;;22.93;60.95;101519.63;5010222;28;45320;-71
2022/06/02 09:51:08;;;;;;;;;3.33;2.67;;;;;23.04;61.12;101519.31;5014450;28;45536;-76
2022/06/02 09:54:00;;;;;;;;;3.33;3.33;;;;;23.09;60.56;101511.97;5005136;28;46649;-74
2022/06/02 09:56:40;;;;;;;;;4.00;4.00;;;;;23.11;59.91;101528.97;5007264;28;45629;-75
2022/06/02 09:59:34;;;;;;;;;3.00;3.00;;;;;23.08;58.34;101526.38;4992723;28;45396;-74
2022/06/02 10:02:23;;;;;;;;;3.00;3.00;;;;;23.05;59.40;101519.25;5008745;28;45604;-74
2022/06/02 10:05:20;;;;;;;;;2.33;2.00;;;;;23.07;57.60;101524.63;5007384;28;46979;-76
2022/06/02 10:08:28;;;;;;;;;4.33;3.33;;;;;23.08;58.14;101526.38;5011461;28;46481;-76
2022/06/02 10:10:59;;;;;;;;;3.00;3.00;;;;;23.08;58.07;101521.88;5012345;28;45431;-77
2022/06/02 10:13:43;;;;;;;;;3.33;2.00;;;;;23.19;59.24;101519.72;5014397;28;45424;-76
2022/06/02 10:16:30;;;;;;;;;3.33;3.33;;;;;23.46;58.26;101519.81;5014591;28;46225;-77
2022/06/02 10:19:07;;;;;;;;;3.00;3.00;;;;;23.71;57.22;101510.03;5012560;28;45531;-75
2022/06/02 10:21:38;;;;;;;;;2.67;2.67;;;;;23.89;56.64;101502.25;5009728;28;45448;-77
2022/06/02 10:24:24;;;;;;;;;2.00;2.00;;;;;23.99;55.99;101498.31;5015537;28;45505;-76
2022/06/02 10:27:05;;;;;;;;;2.33;2.00;;;;;24.04;55.30;101490.97;5013985;28;46461;-76
2022/06/02 10:29:48;;;;;;;;;3.00;3.00;;;;;24.02;56.00;101492.81;5011969;28;45408;-76
2022/06/02 10:32:28;;;;;;;;;3.00;3.00;;;;;23.92;52.05;101497.66;5008590;28;45532;-78
2022/06/02 10:35:18;;;;;;;;;3.00;3.00;;;;;23.82;52.84;101493.50;5014957;28;47208;-77
2022/06/02 10:37:56;;;;;;;;;2.00;2.00;;;;;23.72;52.98;101492.03;5012468;28;46440;-77
2022/06/02 10:40:49;;;;;;;;;3.00;1.67;;;;;23.62;51.67;101490.53;5014447;28;45438;-74
2022/06/02 10:43:32;;;;;;;;;5.00;4.00;;;;;23.57;54.89;101492.50;5013567;28;45400;-75
2022/06/02 10:46:18;;;;;;;;;4.00;2.67;;;;;23.51;53.83;101486.38;5012048;28;45520;-75
2022/06/02 10:49:07;;;;;;;;;5.00;2.00;;;;;23.48;55.11;101483.78;5007332;28;46860;-76
2022/06/02 10:52:10;;;;;;;;;2.00;2.00;;;;;23.47;55.58;101483.81;4989445;28;45401;-75
2022/06/02 10:55:07;;;;;;;;;2.00;2.00;;;;;23.45;53.44;101475.81;5014415;28;45428;-74
2022/06/02 10:58:03;;;;;;;;;2.67;2.67;;;;;23.44;53.15;101470.47;5013076;28;45529;-71
2022/06/02 11:01:05;;;;;;;;;3.00;3.00;;;;;23.45;54.53;101474.91;5014725;28;46519;-74
2022/06/02 11:04:06;;;;;;;;;2.00;2.00;;;;;23.49;52.64;101461.31;4996195;28;45592;-73
2022/06/02 11:06:46;;;;;;;;;3.00;3.00;;;;;23.58;53.12;101468.19;5011947;28;45497;-74
2022/06/02 11:09:39;;;;;;;;;2.00;2.00;;;;;23.67;53.66;101472.44;5010022;28;45729;-73
2022/06/02 11:12:24;;;;;;;;;3.00;3.00;;;;;23.74;53.08;101469.47;5012028;28;46807;-73
2022/06/02 11:15:21;;;;;;;;;2.00;2.00;;;;;23.84;54.30;101467.34;5014699;28;45563;-73
2022/06/02 11:18:02;;;;;;;;;2.00;2.00;;;;;24.02;55.11;101464.03;5013720;28;45281;-73
2022/06/02 11:20:40;;;;;;;;;3.00;2.67;;;;;24.25;53.04;101462.34;5014501;28;45429;-74
2022/06/02 11:23:40;;;;;;;;;5.00;3.00;;;;;24.57;52.66;101450.41;5006241;28;47600;-74
2022/06/02 11:26:35;;;;;;;;;2.00;2.00;;;;;24.90;53.27;101445.53;5009958;28;45536;-73
2022/06/02 11:29:18;;;;;;;;;3.67;3.00;;;;;25.07;52.67;101442.19;5017923;28;45548;-73
2022/06/02 11:32:13;;;;;;;;;5.33;4.00;;;;;25.17;52.30;101442.72;5021805;28;45528;-73
2022/06/02 11:35:00;;;;;;;;;5.33;2.67;;;;;25.32;52.47;101442.97;5016369;28;47458;-73
2022/06/02 11:37:55;;;;;;;;;4.33;3.00;;;;;25.49;52.57;101428.75;5021397;28;45559;-73
2022/06/02 11:40:21;;;;;;;;;5.33;4.00;;;;;25.65;53.04;101422.69;5022593;28;45537;-74
2022/06/02 11:43:04;;;;;;;;;3.00;3.00;;;;;25.72;52.29;101410.66;5022720;28;45356;-73
2022/06/02 11:45:49;;;;;;;;;4.00;4.00;;;;;25.71;50.75;101417.91;5022434;28;47509;-73
2022/06/02 11:48:27;;;;;;;;;3.00;3.00;;;;;25.70;52.73;101428.81;5021136;28;45425;-74
2022/06/02 11:51:10;;;;;;;;;4.33;3.67;;;;;25.66;52.51;101421.75;5022410;28;45473;-74
2022/06/02 11:54:04;;;;;;;;;5.00;4.00;;;;;25.63;52.97;101417.38;5007359;28;45425;-73
2022/06/02 11:56:51;;;;;;;;;4.00;4.00;;;;;25.67;53.13;101420.81;4981824;28;46439;-74
2022/06/02 11:59:35;;;;;;;;;3.00;3.00;;;;;25.75;53.22;101419.56;4996659;28;45532;-75
2022/06/02 12:02:03;;;;;;;;;4.00;4.00;;;;;25.77;52.05;101412.25;5015173;28;45531;-75
2022/06/02 12:04:44;;;;;;;;;4.67;4.00;;;;;25.82;51.55;101406.66;5018738;28;45591;-75
2022/06/02 12:07:47;;;;;;;;;4.67;3.67;;;;;25.99;52.37;101414.03;5015265;28;46380;-74
2022/06/02 12:10:37;;;;;;;;;4.00;4.00;;;;;26.13;51.60;101412.47;5017266;28;45432;-74
2022/06/02 12:13:22;;;;;;;;;6.00;5.00;;;;;26.10;50.73;101404.50;5016268;28;45470;-75
2022/06/02 12:16:13;;;;;;;;;4.67;4.67;;;;;26.04;49.40;101410.16;4995689;28;45541;-74
2022/06/02 12:19:25;;;;;;;;;3.33;3.33;;;;;26.07;51.62;101401.94;4991702;28;47504;-73
2022/06/02 12:21:58;;;;;;;;;3.67;3.00;;;;;26.24;50.74;101393.03;4998528;28;45592;-73
2022/06/02 12:25:05;;;;;;;;;5.67;2.67;;;;;26.52;51.68;101395.41;5016394;28;45357;-73
2022/06/02 12:28:04;;;;;;;;;2.00;2.00;;;;;26.87;49.71;101390.16;4991150;28;45515;-73
2022/06/02 12:30:29;;;;;;;;;3.00;3.00;;;;;27.03;46.26;101384.88;4998127;28;47359;-73
2022/06/02 12:33:22;;;;;;;;;3.67;3.00;;;;;27.13;46.15;101375.38;5011561;28;45483;-73
2022/06/02 12:36:06;;;;;;;;;3.00;3.00;;;;;27.08;47.86;101378.31;5018883;28;45646;-73
2022/06/02 12:38:46;;;;;;;;;3.33;3.33;;;;;27.11;43.11;101361.91;5020061;28;45591;-72
2022/06/02 12:41:23;;;;;;;;;2.00;2.00;;;;;27.26;46.27;101362.94;5012836;28;47517;-73
2022/06/02 12:44:14;;;;;;;;;3.33;3.00;;;;;27.29;45.18;101359.22;4999289;28;45494;-74
2022/06/02 12:47:07;;;;;;;;;3.33;3.33;;;;;27.06;45.37;101365.72;4998412;28;45511;-73
2022/06/02 12:49:54;;;;;;;;;2.00;2.00;;;;;27.04;46.31;101357.69;5015048;28;45537;-75
2022/06/02 12:52:47;;;;;;;;;4.00;3.33;;;;;27.22;44.98;101353.22;5006819;28;47432;-72
2022/06/02 12:55:28;;;;;;;;;3.00;3.00;;;;;27.51;43.96;101346.31;5013992;28;45515;-74
2022/06/02 12:58:25;;;;;;;;;2.33;2.33;;;;;27.74;42.40;101346.97;5010854;28;45471;-73